Time;durP1;ratioP1;P1;durP2;ratioP2;P2;SDS_P1;SDS_P2;PMS_P1;PMS_P2;Temp;Humidity;BMP_temperature;BMP_pressure;BME280_temperature;BME280_humidity;BME280_pressure;Samples;Min_cycle;Max_cycle;Signal;HPM_P1;HPM_P2
2022/03/08 00:00:32;;;;;;;7.55;4.15;;;4.10;75.30;;;;;;5141641;27;37359;-57
2022/03/08 00:02:59;;;;;;;9.27;3.65;;;4.10;75.40;;;;;;5142124;27;40010;-57
2022/03/08 00:05:28;;;;;;;8.15;3.90;;;4.10;75.40;;;;;;5142181;27;37970;-57
2022/03/08 00:07:56;;;;;;;6.70;3.35;;;4.20;75.20;;;;;;5140178;27;37991;-56
2022/03/08 00:10:23;;;;;;;10.52;4.35;;;4.20;75.10;;;;;;5139325;27;37172;-56
2022/03/08 00:12:51;;;;;;;8.57;4.00;;;4.20;75.00;;;;;;5140780;27;37436;-56
2022/03/08 00:15:20;;;;;;;7.80;3.70;;;4.30;75.20;;;;;;5140761;27;37296;-56
2022/03/08 00:17:49;;;;;;;7.15;3.83;;;4.30;75.50;;;;;;5141367;27;37175;-56
2022/03/08 00:20:17;;;;;;;6.55;3.60;;;4.30;75.80;;;;;;5140684;27;35256;-56
2022/03/08 00:22:45;;;;;;;8.82;3.83;;;4.30;76.10;;;;;;5140773;27;37235;-57
2022/03/08 00:25:13;;;;;;;9.13;3.72;;;4.30;75.90;;;;;;5139883;27;37431;-56
2022/03/08 00:27:45;;;;;;;8.32;4.38;;;4.30;76.20;;;;;;5140281;27;37666;-56
2022/03/08 00:30:14;;;;;;;7.53;3.78;;;4.20;76.50;;;;;;5139969;27;38938;-57
2022/03/08 00:32:41;;;;;;;7.18;3.65;;;4.10;77.00;;;;;;5142148;27;37717;-57
2022/03/08 00:35:11;;;;;;;9.25;4.15;;;3.90;77.40;;;;;;5141085;27;37307;-57
2022/03/08 00:37:39;;;;;;;9.23;4.43;;;3.80;78.40;;;;;;5137648;27;38056;-57
2022/03/08 00:40:08;;;;;;;10.05;4.53;;;3.70;78.90;;;;;;5139630;27;36599;-54
2022/03/08 00:42:36;;;;;;;9.68;4.22;;;3.80;79.40;;;;;;5141515;27;36257;-55
2022/03/08 00:45:07;;;;;;;8.98;4.18;;;3.70;80.00;;;;;;5142340;27;37472;-55
2022/03/08 00:47:34;;;;;;;10.23;4.72;;;3.70;80.30;;;;;;5140839;27;36843;-54
2022/03/08 00:50:02;;;;;;;8.88;4.22;;;3.60;80.90;;;;;;5141399;27;36488;-55
2022/03/08 00:52:30;;;;;;;7.40;3.50;;;3.60;81.30;;;;;;5140287;27;37733;-54
2022/03/08 00:54:58;;;;;;;9.98;4.00;;;3.60;81.10;;;;;;5141010;27;37566;-55
2022/03/08 00:57:25;;;;;;;7.93;3.22;;;3.70;80.50;;;;;;5139813;27;36759;-55
2022/03/08 00:59:52;;;;;;;10.85;4.32;;;3.70;80.40;;;;;;5140701;27;36359;-55
2022/03/08 01:02:21;;;;;;;7.68;4.15;;;3.70;80.10;;;;;;5142885;27;20206;-54
2022/03/08 01:04:48;;;;;;;7.93;3.88;;;3.60;79.70;;;;;;5141362;27;37721;-55
2022/03/08 01:07:16;;;;;;;9.18;3.88;;;3.50;79.80;;;;;;5140964;27;37669;-55
2022/03/08 01:09:45;;;;;;;9.73;4.00;;;3.50;80.00;;;;;;5141573;27;37482;-55
2022/03/08 01:12:13;;;;;;;6.75;3.60;;;3.40;80.30;;;;;;5140983;27;39226;-55
2022/03/08 01:14:40;;;;;;;7.10;3.55;;;3.30;80.80;;;;;;5140489;27;36041;-55
2022/03/08 01:17:08;;;;;;;6.55;3.75;;;3.20;81.50;;;;;;5140723;27;37748;-55
2022/03/08 01:19:35;;;;;;;8.98;3.95;;;3.10;82.40;;;;;;5139990;27;35879;-54
2022/03/08 01:22:02;;;;;;;8.18;4.03;;;3.00;83.40;;;;;;5140274;27;36199;-55
2022/03/08 01:24:30;;;;;;;11.35;4.30;;;3.10;83.50;;;;;;5140008;27;37552;-55
2022/03/08 01:26:59;;;;;;;9.68;4.10;;;3.10;83.50;;;;;;5141170;27;36834;-56
2022/03/08 01:29:26;;;;;;;13.70;4.50;;;3.00;83.70;;;;;;5139001;27;37253;-56
2022/03/08 01:31:53;;;;;;;7.30;3.78;;;2.90;83.80;;;;;;5137537;27;36295;-57
2022/03/08 01:34:21;;;;;;;7.95;3.72;;;2.80;84.60;;;;;;5140470;27;38826;-56
2022/03/08 01:36:48;;;;;;;8.05;4.22;;;2.80;85.10;;;;;;5141422;27;37034;-56
2022/03/08 01:39:16;;;;;;;8.95;4.55;;;2.80;85.80;;;;;;5140821;27;35262;-57
2022/03/08 01:41:43;;;;;;;8.30;4.35;;;2.80;85.90;;;;;;5140812;27;37704;-56
2022/03/08 01:44:13;;;;;;;8.80;4.05;;;2.90;85.50;;;;;;5140370;27;37902;-56
2022/03/08 01:46:40;;;;;;;8.25;4.38;;;3.00;84.70;;;;;;5139853;27;38149;-57
2022/03/08 01:49:08;;;;;;;11.02;4.35;;;3.10;83.90;;;;;;5138631;27;37551;-56
2022/03/08 01:51:37;;;;;;;7.65;4.00;;;3.10;83.70;;;;;;5139488;27;36294;-57
2022/03/08 01:54:06;;;;;;;9.27;4.10;;;3.10;84.00;;;;;;5140920;27;39251;-57
2022/03/08 01:56:34;;;;;;;8.88;3.92;;;3.10;83.20;;;;;;5142899;27;37570;-56
2022/03/08 01:59:01;;;;;;;7.97;4.50;;;3.20;82.90;;;;;;5143187;27;37325;-57
2022/03/08 02:01:30;;;;;;;7.00;4.03;;;3.20;82.90;;;;;;5144008;27;35886;-57
2022/03/08 02:03:57;;;;;;;9.10;4.45;;;3.20;82.60;;;;;;5143663;27;34444;-57
2022/03/08 02:06:25;;;;;;;7.70;3.92;;;3.20;82.20;;;;;;5141854;27;36818;-56
2022/03/08 02:08:52;;;;;;;12.90;4.40;;;3.20;81.90;;;;;;5142987;27;36823;-57
2022/03/08 02:11:21;;;;;;;10.30;4.82;;;3.20;81.80;;;;;;5141748;27;38383;-57
2022/03/08 02:13:48;;;;;;;9.50;4.78;;;3.10;81.90;;;;;;5143812;27;36858;-57
2022/03/08 02:16:15;;;;;;;8.00;4.43;;;3.10;82.40;;;;;;5143933;27;38726;-56
2022/03/08 02:18:44;;;;;;;8.77;5.53;;;3.10;83.20;;;;;;5142407;27;35305;-57
2022/03/08 02:21:13;;;;;;;12.32;5.07;;;3.00;83.60;;;;;;5144187;27;36228;-57
2022/03/08 02:23:40;;;;;;;10.18;4.65;;;3.00;83.70;;;;;;5143668;27;37520;-56
2022/03/08 02:26:08;;;;;;;8.10;4.63;;;3.00;83.80;;;;;;5143968;27;36913;-56
2022/03/08 02:28:35;;;;;;;10.43;4.78;;;3.00;83.80;;;;;;5143129;27;36475;-56
2022/03/08 02:31:02;;;;;;;9.15;5.15;;;3.10;83.60;;;;;;5143854;27;37494;-56
2022/03/08 02:33:30;;;;;;;13.23;5.20;;;3.10;83.30;;;;;;5143593;27;39004;-54
2022/03/08 02:35:57;;;;;;;9.10;4.88;;;3.10;83.20;;;;;;5142208;27;38096;-56
2022/03/08 02:38:26;;;;;;;10.18;5.03;;;3.10;83.40;;;;;;5143797;27;35128;-57
2022/03/08 02:40:53;;;;;;;8.30;4.70;;;3.10;83.40;;;;;;5142544;27;38321;-56
2022/03/08 02:43:21;;;;;;;9.68;5.18;;;3.00;83.30;;;;;;5142718;27;37401;-56
2022/03/08 02:45:48;;;;;;;9.13;5.00;;;3.00;83.70;;;;;;5142001;27;37858;-56
2022/03/08 02:48:16;;;;;;;9.13;5.18;;;2.90;83.80;;;;;;5144178;27;36443;-56
2022/03/08 02:50:43;;;;;;;11.00;5.25;;;2.80;84.00;;;;;;5143190;27;36056;-56
2022/03/08 02:53:10;;;;;;;8.82;5.35;;;2.80;84.60;;;;;;5142594;27;37348;-56
2022/03/08 02:55:39;;;;;;;9.43;5.03;;;2.60;85.50;;;;;;5142171;27;35801;-56
2022/03/08 02:58:07;;;;;;;8.93;5.15;;;2.60;86.20;;;;;;5141826;27;35395;-56
2022/03/08 03:00:36;;;;;;;10.27;5.65;;;2.60;86.40;;;;;;5141227;27;37444;-57
2022/03/08 03:03:04;;;;;;;11.68;6.40;;;2.60;86.30;;;;;;5141243;27;36395;-57
2022/03/08 03:05:31;;;;;;;8.10;5.15;;;2.60;86.80;;;;;;5140765;27;37211;-57
2022/03/08 03:07:59;;;;;;;10.30;5.38;;;2.70;87.20;;;;;;5141133;27;37086;-57
2022/03/08 03:10:27;;;;;;;11.60;5.78;;;2.60;87.70;;;;;;5140458;27;37523;-57
2022/03/08 03:12:57;;;;;;;9.40;5.07;;;2.60;88.10;;;;;;5142962;27;38023;-57
2022/03/08 03:15:26;;;;;;;10.38;5.80;;;2.60;88.80;;;;;;5141628;27;37061;-57
2022/03/08 03:17:54;;;;;;;8.68;4.90;;;2.60;88.40;;;;;;5142954;27;35996;-57
2022/03/08 03:20:23;;;;;;;9.98;5.50;;;2.70;88.00;;;;;;5141769;27;39059;-56
2022/03/08 03:22:51;;;;;;;11.02;5.88;;;2.70;87.50;;;;;;5142021;27;37178;-57
2022/03/08 03:25:19;;;;;;;11.20;5.60;;;2.80;86.80;;;;;;5142278;27;36978;-56
2022/03/08 03:27:46;;;;;;;10.80;5.57;;;2.60;86.20;;;;;;5143267;27;38649;-57
2022/03/08 03:30:18;;;;;;;10.35;6.28;;;2.80;86.10;;;;;;5141344;27;37890;-57
2022/03/08 03:32:46;;;;;;;12.00;5.80;;;2.80;86.00;;;;;;5142502;27;36178;-56
2022/03/08 03:35:14;;;;;;;11.50;5.65;;;2.70;86.10;;;;;;5142220;27;37533;-56
2022/03/08 03:37:41;;;;;;;12.48;6.00;;;2.70;86.10;;;;;;5142668;27;36561;-57
2022/03/08 03:40:09;;;;;;;13.23;5.80;;;2.70;86.10;;;;;;5142059;27;37524;-56
2022/03/08 03:42:37;;;;;;;10.80;6.45;;;2.60;86.10;;;;;;5141737;27;37319;-57
2022/03/08 03:45:05;;;;;;;12.00;6.40;;;2.60;86.40;;;;;;5142418;27;35814;-57
2022/03/08 03:47:34;;;;;;;10.45;5.68;;;2.60;86.40;;;;;;5142078;27;38048;-57
2022/03/08 03:50:01;;;;;;;11.07;6.30;;;2.60;86.10;;;;;;5142181;27;37327;-56
2022/03/08 03:52:29;;;;;;;11.27;6.13;;;2.60;86.10;;;;;;5142308;27;38246;-56
2022/03/08 03:54:56;;;;;;;13.15;5.85;;;2.50;86.00;;;;;;5141382;27;36890;-56
2022/03/08 03:57:23;;;;;;;10.75;5.75;;;2.50;85.90;;;;;;5139841;27;36572;-57
2022/03/08 03:59:51;;;;;;;13.18;6.38;;;2.50;85.80;;;;;;5142221;27;37700;-57
2022/03/08 04:02:18;;;;;;;10.38;6.18;;;2.50;85.60;;;;;;5141673;27;37331;-57
2022/03/08 04:04:47;;;;;;;11.85;6.20;;;2.50;85.30;;;;;;5140690;27;36759;-56
2022/03/08 04:07:14;;;;;;;16.58;7.18;;;2.40;85.40;;;;;;5141851;27;37867;-56
2022/03/08 04:09:41;;;;;;;12.68;6.00;;;2.50;85.30;;;;;;5141665;27;35776;-57
2022/03/08 04:12:09;;;;;;;12.48;6.88;;;2.50;85.20;;;;;;5141953;27;36028;-56
2022/03/08 04:14:37;;;;;;;14.48;6.60;;;2.50;85.40;;;;;;5140817;27;35428;-57
2022/03/08 04:17:05;;;;;;;14.60;7.05;;;3.10;85.80;;;;;;5139557;27;36517;-57
2022/03/08 04:19:32;;;;;;;12.13;6.72;;;2.50;85.80;;;;;;5141963;27;37301;-57
2022/03/08 04:22:01;;;;;;;11.50;6.38;;;2.50;85.90;;;;;;5140773;27;37320;-57
2022/03/08 04:24:28;;;;;;;14.95;7.25;;;2.50;86.00;;;;;;5140419;27;36929;-56
2022/03/08 04:26:55;;;;;;;12.20;7.75;;;2.50;86.30;;;;;;5141124;27;35894;-57
2022/03/08 04:29:23;;;;;;;15.00;7.43;;;2.50;86.30;;;;;;5141472;27;40120;-56
2022/03/08 04:31:50;;;;;;;12.55;6.97;;;2.50;86.30;;;;;;5141975;27;36132;-57
2022/03/08 04:34:18;;;;;;;13.52;7.47;;;2.50;86.50;;;;;;5142071;27;37910;-57
2022/03/08 04:36:45;;;;;;;13.23;7.25;;;2.50;86.40;;;;;;5140723;27;37457;-56
2022/03/08 04:39:14;;;;;;;14.18;7.20;;;2.50;86.30;;;;;;5142269;27;36354;-57
2022/03/08 04:41:42;;;;;;;12.60;7.13;;;2.50;86.40;;;;;;5141173;27;37261;-56
2022/03/08 04:44:10;;;;;;;13.63;7.15;;;2.50;86.30;;;;;;5140606;27;36691;-56
2022/03/08 04:46:37;;;;;;;14.40;8.10;;;2.50;86.40;;;;;;5142278;27;36585;-56
2022/03/08 04:49:04;;;;;;;11.57;7.25;;;2.40;86.40;;;;;;5140518;27;38844;-57
2022/03/08 04:51:32;;;;;;;14.43;7.38;;;2.50;86.40;;;;;;5142181;27;36044;-56
2022/03/08 04:54:00;;;;;;;14.35;7.38;;;2.50;86.20;;;;;;5141143;27;37125;-56
2022/03/08 04:56:28;;;;;;;12.48;7.32;;;2.40;86.20;;;;;;5140877;27;38041;-56
2022/03/08 04:58:56;;;;;;;12.98;8.23;;;2.40;86.30;;;;;;5138524;27;38145;-56
2022/03/08 05:01:23;;;;;;;14.45;8.13;;;2.40;86.50;;;;;;5139630;27;37074;-56
2022/03/08 05:03:51;;;;;;;13.45;7.65;;;2.40;86.60;;;;;;5140503;27;36860;-56
2022/03/08 05:06:18;;;;;;;13.40;7.80;;;2.40;86.70;;;;;;5139129;27;36280;-56
2022/03/08 05:08:46;;;;;;;13.75;7.57;;;2.40;86.70;;;;;;5141160;27;36425;-56
2022/03/08 05:11:13;;;;;;;15.38;8.43;;;2.40;86.70;;;;;;5142000;27;37186;-57
2022/03/08 05:13:42;;;;;;;14.63;7.20;;;2.50;86.60;;;;;;5140910;27;37091;-56
2022/03/08 05:16:09;;;;;;;12.85;7.15;;;2.40;86.60;;;;;;5141223;27;37355;-57
2022/03/08 05:18:36;;;;;;;12.77;6.93;;;2.40;86.60;;;;;;5141711;27;36229;-57
2022/03/08 05:21:04;;;;;;;15.10;7.68;;;2.40;86.70;;;;;;5140376;27;36627;-57
2022/03/08 05:23:31;;;;;;;14.40;8.15;;;2.40;87.00;;;;;;5140591;27;37678;-57
2022/03/08 05:25:58;;;;;;;14.40;7.35;;;2.40;87.00;;;;;;5139509;27;36144;-56
2022/03/08 05:28:26;;;;;;;13.23;8.15;;;2.50;87.00;;;;;;5143863;27;37403;-56
2022/03/08 05:30:54;;;;;;;14.77;8.48;;;2.50;87.00;;;;;;5143845;27;38499;-56
2022/03/08 05:33:22;;;;;;;13.82;7.55;;;2.50;86.90;;;;;;5144610;27;37026;-57
2022/03/08 05:35:50;;;;;;;13.90;8.05;;;2.60;87.00;;;;;;5144046;27;35223;-56
2022/03/08 05:38:18;;;;;;;13.98;8.18;;;2.60;86.80;;;;;;5143541;27;39179;-56
2022/03/08 05:40:45;;;;;;;14.38;8.18;;;2.60;86.60;;;;;;5143607;27;38149;-56
2022/03/08 05:43:12;;;;;;;15.07;8.63;;;2.60;86.40;;;;;;5145042;27;37862;-56
2022/03/08 05:45:40;;;;;;;14.98;8.40;;;2.60;86.60;;;;;;5145108;27;36534;-57
2022/03/08 05:48:09;;;;;;;13.38;8.00;;;2.60;86.60;;;;;;5143846;27;37657;-57
2022/03/08 05:50:36;;;;;;;13.73;8.25;;;2.60;86.60;;;;;;5145079;27;37546;-57
2022/03/08 05:53:04;;;;;;;15.18;8.52;;;2.60;86.60;;;;;;5142278;27;37395;-57
2022/03/08 05:55:31;;;;;;;13.38;8.38;;;2.60;87.00;;;;;;5142497;27;35298;-56
2022/03/08 05:57:58;;;;;;;13.60;8.43;;;2.60;87.50;;;;;;5144724;27;39160;-57
2022/03/08 06:00:26;;;;;;;15.02;8.50;;;2.60;86.70;;;;;;5142796;27;37924;-56
2022/03/08 06:02:53;;;;;;;14.88;8.65;;;2.50;86.50;;;;;;5144948;27;37402;-57
2022/03/08 06:05:23;;;;;;;16.50;8.88;;;2.60;86.70;;;;;;5142208;27;36351;-56
2022/03/08 06:07:50;;;;;;;13.77;8.60;;;2.50;86.60;;;;;;5140971;27;36254;-57
2022/03/08 06:10:17;;;;;;;15.80;9.20;;;2.50;86.50;;;;;;5142365;27;36932;-56
2022/03/08 06:12:45;;;;;;;15.13;8.80;;;2.50;86.50;;;;;;5142002;27;35751;-56
2022/03/08 06:15:12;;;;;;;14.48;8.32;;;2.50;86.60;;;;;;5143317;27;37549;-57
2022/03/08 06:17:39;;;;;;;13.25;7.72;;;2.50;86.50;;;;;;5142110;27;37818;-57
2022/03/08 06:20:09;;;;;;;14.45;8.50;;;2.50;86.50;;;;;;5143833;27;36134;-57
2022/03/08 06:22:37;;;;;;;15.98;8.23;;;2.50;86.80;;;;;;5142196;27;37017;-56
2022/03/08 06:25:06;;;;;;;16.23;8.55;;;2.50;87.20;;;;;;5141758;27;37064;-57
2022/03/08 06:27:33;;;;;;;14.00;7.43;;;2.70;87.10;;;;;;5141438;27;38784;-57
2022/03/08 06:30:01;;;;;;;16.42;9.25;;;2.90;87.00;;;;;;5142988;27;35984;-57
2022/03/08 06:32:28;;;;;;;17.45;9.93;;;3.00;86.40;;;;;;5142934;27;37127;-56
2022/03/08 06:34:55;;;;;;;15.43;8.68;;;3.10;86.20;;;;;;5142814;27;36362;-57
2022/03/08 06:37:23;;;;;;;16.70;8.48;;;3.20;86.00;;;;;;5143481;27;38991;-57
2022/03/08 06:39:51;;;;;;;21.98;8.80;;;3.10;86.20;;;;;;5142191;27;37088;-57
2022/03/08 06:42:19;;;;;;;15.40;8.75;;;3.10;86.60;;;;;;5142605;27;37144;-56
2022/03/08 06:44:46;;;;;;;15.75;9.40;;;3.20;86.40;;;;;;5142925;27;37433;-57
2022/03/08 06:47:14;;;;;;;15.00;8.82;;;3.30;86.30;;;;;;5141447;27;39259;-57
2022/03/08 06:49:43;;;;;;;14.35;9.02;;;3.40;86.10;;;;;;5143113;27;37441;-57
2022/03/08 06:52:11;;;;;;;14.55;8.95;;;3.50;86.00;;;;;;5141979;27;39636;-57
2022/03/08 06:54:39;;;;;;;13.65;7.93;;;3.60;85.60;;;;;;5143714;27;36549;-56
2022/03/08 06:57:08;;;;;;;14.65;9.23;;;3.70;85.30;;;;;;5142823;27;37970;-57
2022/03/08 06:59:36;;;;;;;13.80;8.38;;;3.80;85.30;;;;;;5142273;27;38485;-57
2022/03/08 07:02:04;;;;;;;15.98;9.48;;;3.80;84.80;;;;;;5141520;27;36770;-57
2022/03/08 07:04:31;;;;;;;17.33;9.05;;;3.90;85.00;;;;;;5142598;27;36572;-57
2022/03/08 07:06:59;;;;;;;17.05;8.90;;;3.90;84.90;;;;;;5141139;27;36324;-57
2022/03/08 07:09:26;;;;;;;16.80;9.00;;;4.10;84.90;;;;;;5141059;27;38009;-57
2022/03/08 07:11:53;;;;;;;15.68;9.25;;;4.20;84.70;;;;;;5140329;27;36834;-57
2022/03/08 07:14:22;;;;;;;14.05;9.05;;;4.40;84.50;;;;;;5140856;27;35868;-56
2022/03/08 07:16:50;;;;;;;16.65;9.02;;;4.60;84.00;;;;;;5140943;27;37312;-57
2022/03/08 07:19:18;;;;;;;14.43;9.20;;;4.80;83.50;;;;;;5140891;27;38538;-57
2022/03/08 07:21:47;;;;;;;17.70;9.43;;;4.90;82.80;;;;;;5139448;27;37552;-57
2022/03/08 07:24:15;;;;;;;14.13;8.32;;;5.00;82.90;;;;;;5141774;27;37309;-57
2022/03/08 07:26:42;;;;;;;15.02;8.65;;;5.10;82.20;;;;;;5140798;27;38565;-58
2022/03/08 07:29:10;;;;;;;15.75;9.35;;;5.20;81.30;;;;;;5141924;27;37187;-58
2022/03/08 07:31:38;;;;;;;13.15;7.95;;;5.30;81.30;;;;;;5140648;27;37438;-58
2022/03/08 07:34:06;;;;;;;14.90;8.77;;;5.40;80.20;;;;;;5141228;27;38328;-57
2022/03/08 07:36:34;;;;;;;14.48;8.63;;;5.50;79.30;;;;;;5138671;27;37425;-57
2022/03/08 07:39:02;;;;;;;18.95;9.90;;;5.50;78.30;;;;;;5137258;27;37334;-57
2022/03/08 07:41:29;;;;;;;14.98;8.35;;;5.60;77.70;;;;;;5139281;27;35921;-57
2022/03/08 07:43:56;;;;;;;17.27;9.63;;;5.60;77.20;;;;;;5139397;27;35816;-57
2022/03/08 07:46:24;;;;;;;15.27;8.07;;;5.60;77.20;;;;;;5140106;27;37775;-57
2022/03/08 07:48:52;;;;;;;14.90;9.07;;;5.60;77.20;;;;;;5142088;27;35949;-57
2022/03/08 07:51:20;;;;;;;13.90;8.00;;;5.70;76.10;;;;;;5140523;27;35852;-57
2022/03/08 07:53:47;;;;;;;12.57;8.10;;;5.90;75.50;;;;;;5142306;27;36231;-57
2022/03/08 07:56:14;;;;;;;12.35;7.80;;;5.90;74.70;;;;;;5141591;27;37458;-57
2022/03/08 07:58:42;;;;;;;15.30;8.43;;;6.00;74.60;;;;;;5141326;27;35922;-57
2022/03/08 08:01:09;;;;;;;12.55;7.93;;;6.10;74.20;;;;;;5141380;27;38796;-57
2022/03/08 08:03:36;;;;;;;12.48;8.10;;;6.10;73.60;;;;;;5141661;27;36366;-57
2022/03/08 08:06:05;;;;;;;13.30;7.93;;;6.10;73.00;;;;;;5140893;27;37001;-57
2022/03/08 08:08:33;;;;;;;13.88;8.30;;;6.20;73.60;;;;;;5140667;27;37286;-57
2022/03/08 08:11:00;;;;;;;12.43;7.75;;;6.50;72.40;;;;;;5139196;27;38392;-57
2022/03/08 08:13:27;;;;;;;14.80;8.07;;;6.80;71.90;;;;;;5139840;27;34791;-57
2022/03/08 08:15:55;;;;;;;13.73;7.90;;;7.00;69.90;;;;;;5139715;27;37824;-57
2022/03/08 08:18:22;;;;;;;11.68;7.47;;;7.20;69.90;;;;;;5140943;27;38258;-57
2022/03/08 08:20:50;;;;;;;13.13;8.38;;;7.40;69.10;;;;;;5141046;27;35436;-57
2022/03/08 08:23:18;;;;;;;13.00;7.85;;;7.50;68.40;;;;;;5139061;27;36734;-58
2022/03/08 08:25:46;;;;;;;11.20;7.50;;;7.80;68.10;;;;;;5139268;27;37809;-57
2022/03/08 08:28:13;;;;;;;12.95;7.50;;;8.10;66.90;;;;;;5140742;27;38056;-58
2022/03/08 08:30:40;;;;;;;11.25;7.35;;;8.50;65.40;;;;;;5140807;27;39948;-58
2022/03/08 08:33:08;;;;;;;11.55;7.15;;;8.90;63.10;;;;;;5141254;27;37474;-57
2022/03/08 08:35:38;;;;;;;10.48;6.70;;;9.30;61.30;;;;;;5139739;27;37568;-57
2022/03/08 08:38:06;;;;;;;13.23;7.65;;;9.50;59.60;;;;;;5139117;27;37220;-57
2022/03/08 08:40:35;;;;;;;15.35;7.93;;;9.70;59.20;;;;;;5138264;27;37885;-57
2022/03/08 08:43:03;;;;;;;11.40;7.43;;;10.20;57.60;;;;;;5140259;27;39189;-58
2022/03/08 08:45:30;;;;;;;11.63;6.35;;;10.60;56.10;;;;;;5141193;27;37694;-58
2022/03/08 08:47:58;;;;;;;11.18;7.15;;;11.00;54.00;;;;;;5140616;27;38186;-58
2022/03/08 08:50:25;;;;;;;11.80;7.57;;;11.00;53.20;;;;;;5138143;27;35818;-57
2022/03/08 08:52:53;;;;;;;10.77;6.78;;;10.90;52.60;;;;;;5140461;27;36548;-57
2022/03/08 08:55:20;;;;;;;12.88;7.40;;;10.80;52.40;;;;;;5138105;27;40090;-58
2022/03/08 08:57:49;;;;;;;13.55;7.53;;;10.90;51.70;;;;;;5138336;27;35971;-58
2022/03/08 09:00:17;;;;;;;13.15;7.43;;;11.10;50.80;;;;;;5136533;27;35793;-58
2022/03/08 09:02:45;;;;;;;11.48;6.22;;;11.50;50.40;;;;;;5139223;27;36424;-57
2022/03/08 09:05:13;;;;;;;10.75;7.13;;;11.90;49.70;;;;;;5140135;27;37938;-58
2022/03/08 09:07:41;;;;;;;11.15;7.38;;;12.30;48.50;;;;;;5141166;27;37148;-58
2022/03/08 09:10:09;;;;;;;10.80;7.32;;;12.50;47.20;;;;;;5141436;27;38081;-58
2022/03/08 09:12:37;;;;;;;10.25;6.53;;;12.80;47.10;;;;;;5141379;27;38848;-57
2022/03/08 09:15:07;;;;;;;10.93;6.57;;;13.00;46.90;;;;;;5141207;27;36279;-58
2022/03/08 09:17:37;;;;;;;16.60;6.80;;;13.20;45.20;;;;;;5138243;27;37031;-57
2022/03/08 09:20:05;;;;;;;11.63;7.18;;;13.20;44.80;;;;;;5140600;27;35814;-57
2022/03/08 09:22:33;;;;;;;9.95;6.43;;;13.30;44.90;;;;;;5140483;27;35526;-58
2022/03/08 09:25:00;;;;;;;9.77;6.70;;;13.40;44.90;;;;;;5140362;27;37585;-58
2022/03/08 09:27:30;;;;;;;9.85;6.75;;;13.30;45.30;;;;;;5139480;27;38409;-58
2022/03/08 09:29:58;;;;;;;9.30;6.35;;;12.90;45.10;;;;;;5140997;27;37640;-55
2022/03/08 09:32:29;;;;;;;11.60;6.80;;;12.60;45.80;;;;;;5139833;27;37933;-55
2022/03/08 09:34:56;;;;;;;10.90;6.97;;;12.40;46.70;;;;;;5137759;27;38306;-58
2022/03/08 09:37:24;;;;;;;10.68;6.82;;;12.40;46.70;;;;;;5135616;27;35995;-57
2022/03/08 09:39:51;;;;;;;9.32;6.32;;;12.50;46.40;;;;;;5138964;27;36852;-58
2022/03/08 09:42:20;;;;;;;10.82;6.60;;;12.70;46.10;;;;;;5140010;27;37730;-58
2022/03/08 09:44:48;;;;;;;9.98;6.28;;;13.00;45.60;;;;;;5140896;27;37515;-58
2022/03/08 09:47:16;;;;;;;11.20;6.15;;;13.20;45.30;;;;;;5140008;27;37873;-58
2022/03/08 09:49:45;;;;;;;8.98;5.68;;;13.30;44.00;;;;;;5140532;27;36729;-59
2022/03/08 09:52:12;;;;;;;9.45;5.95;;;13.30;42.70;;;;;;5142047;27;36438;-58
2022/03/08 09:54:42;;;;;;;8.68;5.63;;;13.20;43.30;;;;;;5139209;27;37044;-57
2022/03/08 09:57:10;;;;;;;10.23;6.10;;;13.10;43.00;;;;;;5139788;27;35146;-58
2022/03/08 09:59:38;;;;;;;8.13;5.45;;;12.90;42.70;;;;;;5139084;27;35882;-55
2022/03/08 10:02:06;;;;;;;10.95;5.25;;;12.90;42.50;;;;;;5136375;27;36939;-55
2022/03/08 10:04:33;;;;;;;8.48;5.25;;;12.90;42.20;;;;;;5139154;27;38109;-56
2022/03/08 10:07:09;;;;;;;8.05;5.47;;;13.10;42.40;;;;;;5138088;27;37674;-55
2022/03/08 10:09:36;;;;;;;7.82;5.00;;;13.30;41.20;;;;;;5139802;27;37944;-56
2022/03/08 10:12:15;;;;;;;9.55;4.85;;;13.40;40.80;;;;;;5139514;27;35137;-57
2022/03/08 10:14:43;;;;;;;8.30;4.70;;;13.50;38.40;;;;;;5143677;27;37423;-56
2022/03/08 10:17:31;;;;;;;8.70;4.88;;;13.50;38.80;;;;;;5143788;27;37367;-57
2022/03/08 10:19:59;;;;;;;8.45;4.82;;;13.70;38.90;;;;;;5143136;27;36563;-56
2022/03/08 10:22:30;;;;;;;8.10;4.22;;;13.80;37.80;;;;;;5142146;27;37567;-56
2022/03/08 10:25:15;;;;;;;8.05;5.07;;;14.20;38.00;;;;;;5142485;27;38719;-56
2022/03/08 10:27:45;;;;;;;9.00;4.70;;;14.40;36.70;;;;;;5141387;27;36665;-56
2022/03/08 10:30:13;;;;;;;7.55;4.82;;;14.50;37.20;;;;;;5139662;27;36978;-56
2022/03/08 10:32:41;;;;;;;7.57;4.70;;;14.40;37.40;;;;;;5141382;27;36460;-56
2022/03/08 10:35:10;;;;;;;9.93;4.63;;;14.30;37.90;;;;;;5139987;27;37829;-56
2022/03/08 10:37:40;;;;;;;6.55;4.25;;;14.30;38.50;;;;;;5139449;27;36232;-56
2022/03/08 10:40:09;;;;;;;7.45;4.25;;;14.10;37.80;;;;;;5140604;27;38314;-56
2022/03/08 10:42:39;;;;;;;8.75;4.60;;;14.10;37.70;;;;;;5139612;27;36164;-57
2022/03/08 10:45:08;;;;;;;6.63;4.25;;;14.10;37.00;;;;;;5138474;27;36532;-56
2022/03/08 10:47:40;;;;;;;7.65;4.50;;;14.10;36.90;;;;;;5140525;27;37686;-57
2022/03/08 10:50:09;;;;;;;7.28;4.38;;;14.10;37.20;;;;;;5136164;27;35905;-56
2022/03/08 10:52:40;;;;;;;7.25;3.88;;;14.00;36.80;;;;;;5136591;27;38380;-57
2022/03/08 10:55:13;;;;;;;7.10;3.88;;;13.90;37.20;;;;;;5138169;27;37873;-56
2022/03/08 10:57:43;;;;;;;6.60;4.15;;;13.80;37.30;;;;;;5138463;27;37504;-57
2022/03/08 11:00:15;;;;;;;7.00;4.20;;;13.70;37.20;;;;;;5137756;27;38278;-56
2022/03/08 11:02:50;;;;;;;6.13;3.97;;;13.60;37.90;;;;;;5139889;27;37736;-56
2022/03/08 11:05:19;;;;;;;6.75;3.90;;;13.60;37.30;;;;;;5139310;27;37611;-57
2022/03/08 11:07:49;;;;;;;8.35;3.97;;;13.60;37.20;;;;;;5139256;27;36027;-56
2022/03/08 11:10:18;;;;;;;7.88;3.60;;;13.80;36.30;;;;;;5138991;27;36869;-57
2022/03/08 11:12:46;;;;;;;7.50;4.18;;;14.00;36.20;;;;;;5139197;27;36605;-57
2022/03/08 11:15:15;;;;;;;7.60;3.50;;;14.20;36.10;;;;;;5139514;27;37381;-57
2022/03/08 11:17:45;;;;;;;6.90;3.72;;;14.20;35.70;;;;;;5139376;27;38472;-57
2022/03/08 11:20:13;;;;;;;6.00;3.75;;;14.10;36.30;;;;;;5137739;27;37010;-57
2022/03/08 11:22:41;;;;;;;6.07;3.78;;;14.00;36.70;;;;;;5137865;27;36028;-57
2022/03/08 11:25:13;;;;;;;7.35;3.83;;;13.90;36.00;;;;;;5136739;27;40049;-57
2022/03/08 11:27:42;;;;;;;6.00;3.67;;;13.90;36.00;;;;;;5135589;27;38119;-57
2022/03/08 11:30:13;;;;;;;8.18;4.60;;;13.80;36.30;;;;;;5138191;27;39159;-58
2022/03/08 11:32:51;;;;;;;8.07;4.10;;;14.00;37.10;;;;;;5139038;27;37411;-57
2022/03/08 11:35:26;;;;;;;7.45;4.57;;;14.00;37.50;;;;;;5138296;27;37646;-58
2022/03/08 11:37:55;;;;;;;7.70;4.20;;;14.10;37.00;;;;;;5139851;27;36020;-57
2022/03/08 11:40:24;;;;;;;6.82;4.63;;;14.10;36.60;;;;;;5137814;27;36826;-57
2022/03/08 11:42:53;;;;;;;8.00;4.47;;;14.40;35.80;;;;;;5139128;27;37481;-57
2022/03/08 11:45:23;;;;;;;8.15;4.53;;;14.70;35.50;;;;;;5137964;27;39355;-57
2022/03/08 11:47:55;;;;;;;8.15;4.50;;;14.60;35.40;;;;;;5138872;27;36246;-57
2022/03/08 11:50:27;;;;;;;7.78;4.57;;;14.30;36.20;;;;;;5138399;27;35796;-57
2022/03/08 11:53:12;;;;;;;8.60;4.72;;;13.80;37.00;;;;;;5138855;27;36493;-57
2022/03/08 11:55:48;;;;;;;8.05;4.50;;;13.40;38.00;;;;;;5138748;27;38857;-57
2022/03/08 11:58:16;;;;;;;7.20;3.97;;;13.20;38.40;;;;;;5138804;27;36983;-57
2022/03/08 12:00:45;;;;;;;8.18;4.53;;;12.80;38.60;;;;;;5137881;27;35859;-57
2022/03/08 12:03:18;;;;;;;7.07;4.00;;;12.70;39.50;;;;;;5138402;27;38178;-57
2022/03/08 12:05:56;;;;;;;12.55;3.70;;;12.50;40.00;;;;;;5137363;27;37639;-57
2022/03/08 12:09:01;;;;;;;7.82;4.03;;;12.40;40.00;;;;;;5137187;27;37854;-56
2022/03/08 12:11:35;;;;;;;7.07;4.30;;;12.30;40.70;;;;;;5137369;27;35807;-57
2022/03/08 12:14:07;;;;;;;6.53;4.22;;;12.20;40.30;;;;;;5137310;27;36837;-57
2022/03/08 12:16:35;;;;;;;6.55;3.67;;;12.20;41.00;;;;;;5137224;27;36087;-57
2022/03/08 12:19:04;;;;;;;6.82;3.25;;;12.20;41.20;;;;;;5137805;27;38543;-57
2022/03/08 12:21:40;;;;;;;6.85;3.53;;;12.10;40.80;;;;;;5137360;27;35706;-56
2022/03/08 12:24:17;;;;;;;6.90;3.60;;;12.10;41.90;;;;;;5137473;27;36391;-57
2022/03/08 12:26:59;;;;;;;7.07;2.90;;;11.90;41.20;;;;;;5135913;27;39676;-56
2022/03/08 12:29:29;;;;;;;6.45;2.58;;;11.90;41.40;;;;;;5137014;27;38217;-56
2022/03/08 12:32:25;;;;;;;5.90;2.53;;;11.70;40.10;;;;;;5137002;27;35728;-57
2022/03/08 12:35:01;;;;;;;5.32;2.72;;;11.50;39.90;;;;;;5137220;27;36741;-57
2022/03/08 12:37:31;;;;;;;5.53;3.20;;;11.40;40.70;;;;;;5136827;27;37621;-57
2022/03/08 12:40:00;;;;;;;5.72;3.08;;;11.40;41.10;;;;;;5137535;27;38192;-56
2022/03/08 12:42:34;;;;;;;6.57;2.97;;;11.40;41.50;;;;;;5138897;27;37206;-57
2022/03/08 12:45:13;;;;;;;7.07;3.50;;;11.40;41.50;;;;;;5137750;27;36293;-55
2022/03/08 12:47:43;;;;;;;5.97;2.67;;;11.40;43.10;;;;;;5136263;27;37254;-57
2022/03/08 12:50:12;;;;;;;5.22;2.83;;;11.40;40.70;;;;;;5136866;27;37062;-56
2022/03/08 12:52:41;;;;;;;6.55;3.38;;;11.30;40.50;;;;;;5137574;27;37303;-57
2022/03/08 12:55:11;;;;;;;6.50;3.13;;;11.20;41.70;;;;;;5137162;27;36682;-56